createdAt,value
2019-04-21T00:00:00.424Z,82.9435
2019-04-21T00:02:05.431Z,82.9053
2019-04-21T00:04:19.823Z,83.2120
2019-04-21T00:06:46.006Z,81.5320
2019-04-21T00:09:08.671Z,83.1113
2019-04-21T00:10:56.718Z,83.0930
2019-04-21T00:12:56.152Z,81.4649
2019-04-21T00:15:01.984Z,82.2614
2019-04-21T00:17:07.870Z,82.0600
2019-04-21T00:19:17.284Z,83.5752
2019-04-21T00:21:26.608Z,83.6194
2019-04-21T00:23:47.315Z,83.9323
2019-04-21T00:25:49.867Z,84.5487
2019-04-21T00:28:04.689Z,86.6468
2019-04-21T00:30:15.677Z,84.9973
2019-04-21T00:32:17.941Z,83.3036
2019-04-21T00:34:11.173Z,85.6382
2019-04-21T00:36:20.610Z,82.3240
2019-04-21T00:38:49.077Z,81.4496
2019-04-21T00:40:56.052Z,78.3276
2019-04-21T00:43:01.319Z,78.3062
2019-04-21T00:45:03.476Z,80.3250
2019-04-21T00:47:15.652Z,81.7029
2019-04-21T00:49:23.191Z,82.3209
2019-04-21T00:51:47.094Z,79.5010
2019-04-21T00:53:51.953Z,78.9242
2019-04-21T00:55:59.090Z,77.7645
2019-04-21T00:58:03.472Z,75.7778
2019-04-21T01:00:13.727Z,80.9506
2019-04-21T01:02:15.685Z,82.0127
2019-04-21T01:04:30.490Z,81.7304
2019-04-21T01:06:42.745Z,79.8810
2019-04-21T01:08:51.369Z,81.6114
2019-04-21T01:10:48.907Z,79.3942
2019-04-21T01:12:54.735Z,80.6577
2019-04-21T01:15:20.518Z,80.8545
2019-04-21T01:17:25.815Z,79.7055
2019-04-21T01:19:31.824Z,79.5926
2019-04-21T01:21:15.566Z,82.4857
2019-04-21T01:23:19.250Z,82.1408
2019-04-21T01:25:30.223Z,85.1987
2019-04-21T01:27:52.165Z,84.5533
2019-04-21T01:30:01.202Z,82.6734
2019-04-21T01:32:10.539Z,78.9639
2019-04-21T01:34:20.595Z,84.1779
2019-04-21T01:36:25.275Z,80.9552
2019-04-21T01:38:42.346Z,82.2065
2019-04-21T01:40:51.300Z,77.6867
2019-04-21T01:42:52.931Z,74.1985
2019-04-21T01:45:02.411Z,76.0525
2019-04-21T01:47:06.112Z,76.5850
2019-04-21T01:49:13.935Z,74.9889
2019-04-21T01:51:23.598Z,76.5393
2019-04-21T01:53:38.432Z,80.3738
2019-04-21T01:55:45.600Z,81.6342
2019-04-21T01:57:52.615Z,83.4104
2019-04-21T01:59:54.924Z,80.2274
2019-04-21T02:02:15.283Z,78.7274
2019-04-21T02:04:27.076Z,78.9502
2019-04-21T02:06:27.615Z,76.4416
2019-04-21T02:08:36.466Z,74.9218
2019-04-21T02:10:56.057Z,78.9914
2019-04-21T02:12:56.571Z,80.8011
2019-04-21T02:15:11.403Z,81.7761
2019-04-21T02:17:14.550Z,84.3442
2019-04-21T02:19:19.933Z,84.0421
2019-04-21T02:21:31.345Z,84.6052
2019-04-21T02:23:46.385Z,82.6444
2019-04-21T02:25:50.845Z,84.8142
2019-04-21T02:28:03.709Z,81.8708
2019-04-21T02:30:10.656Z,84.4068
2019-04-21T02:34:52.983Z,73.5485
2019-04-21T02:39:02.383Z,77.7569
2019-04-21T02:43:13.138Z,78.7167
2019-04-21T02:45:17.186Z,77.5784
2019-04-21T02:47:37.238Z,77.1939
2019-04-21T02:51:42.595Z,74.5327
2019-04-21T02:54:28.902Z,77.0825
2019-04-21T02:56:01.172Z,76.9818
2019-04-21T02:58:18.611Z,78.7625
2019-04-21T03:02:35.484Z,77.0321
2019-04-21T03:04:40.408Z,78.0529
2019-04-21T03:06:58.456Z,77.0275
2019-04-21T03:11:04.903Z,77.8439
2019-04-21T03:13:18.802Z,74.1619
2019-04-21T03:15:21.919Z,79.0692
2019-04-21T03:19:46.193Z,79.4812
2019-04-21T03:23:53.620Z,75.2422
2019-04-21T03:26:12.408Z,77.5357
2019-04-21T03:28:14.085Z,74.8882
2019-04-21T03:30:35.769Z,76.0159
2019-04-21T03:39:01.766Z,74.7936
2019-04-21T03:41:04.686Z,73.3837
2019-04-21T03:43:14.718Z,75.4299
2019-04-21T03:45:30.981Z,72.6268
2019-04-21T03:49:50.086Z,79.3820
2019-04-21T03:53:54.251Z,80.5814
2019-04-21T03:58:34.744Z,82.2461
2019-04-21T04:00:34.093Z,84.0269
2019-04-21T04:02:34.417Z,83.5111
2019-04-21T04:04:53.515Z,85.4292
2019-04-21T04:09:14.341Z,86.5782
2019-04-21T04:13:04.918Z,88.8533
2019-04-21T04:15:34.657Z,89.6361
2019-04-21T04:19:39.420Z,88.0873
2019-04-21T04:21:57.510Z,86.5370
2019-04-21T04:24:05.017Z,87.7684
2019-04-21T04:26:07.565Z,85.3452
2019-04-21T04:28:25.398Z,85.0034
2019-04-21T04:32:34.786Z,80.4623
2019-04-21T04:34:51.625Z,81.2116
2019-04-21T04:37:12.405Z,82.6581
2019-04-21T04:39:14.164Z,79.7009
2019-04-21T04:41:16.939Z,80.2502
2019-04-21T04:43:23.185Z,81.6602
2019-04-21T04:45:32.270Z,81.7349
2019-04-21T04:52:09.354Z,82.6810
2019-04-21T04:53:53.197Z,83.5340
2019-04-21T04:56:18.175Z,82.1698
2019-04-21T04:58:29.863Z,79.7147
2019-04-21T05:00:34.955Z,79.7421
2019-04-21T05:02:46.349Z,76.0998
2019-04-21T05:04:54.886Z,78.9731
2019-04-21T05:07:06.622Z,78.9471
2019-04-21T05:09:15.172Z,78.7991
2019-04-21T05:11:31.002Z,78.3566
2019-04-21T05:15:35.990Z,76.1212
2019-04-21T05:17:49.227Z,77.0748
2019-04-21T05:20:03.930Z,74.9584
2019-04-21T05:22:04.965Z,75.6283
2019-04-21T05:24:20.229Z,76.4248
2019-04-21T05:26:03.271Z,77.8973
2019-04-21T05:28:11.314Z,77.6791
2019-04-21T05:32:39.551Z,77.4075
2019-04-21T05:34:43.016Z,74.7600
2019-04-21T05:36:52.102Z,73.0571
2019-04-21T05:39:01.309Z,71.9081
2019-04-21T05:41:01.997Z,74.3801
2019-04-21T05:43:21.351Z,75.4131
2019-04-21T05:45:47.769Z,74.8348
2019-04-21T05:47:40.031Z,73.7865
2019-04-21T05:49:45.453Z,71.8761
2019-04-21T05:51:52.879Z,68.0461
2019-04-21T05:54:14.715Z,73.7758
2019-04-21T05:56:16.211Z,69.2851
2019-04-21T05:58:19.651Z,67.1611
2019-04-21T06:02:35.159Z,65.8808
2019-04-21T06:05:13.596Z,59.0646
2019-04-21T06:07:04.336Z,56.9574
2019-04-21T06:09:07.464Z,53.5012
2019-04-21T06:11:21.044Z,62.2675
2019-04-21T06:13:31.522Z,61.3519
2019-04-21T06:15:41.754Z,54.8745
2019-04-21T06:17:44.396Z,50.9621
2019-04-21T06:21:57.191Z,49.9916
2019-04-21T06:24:03.803Z,53.5393
2019-04-21T06:26:44.813Z,50.7958
2019-04-21T06:28:28.659Z,59.6719
2019-04-21T06:30:45.509Z,50.6767
2019-04-21T06:32:50.508Z,53.2509
2019-04-21T06:35:01.913Z,56.1608
2019-04-21T06:37:07.836Z,62.8122
2019-04-21T06:39:28.319Z,59.2416
2019-04-21T06:41:21.120Z,59.6872
2019-04-21T06:43:33.503Z,57.2183
2019-04-21T06:45:36.690Z,53.0861
2019-04-21T06:47:50.770Z,53.7118
2019-04-21T06:49:50.845Z,58.6877
2019-04-21T06:52:08.448Z,47.6066
2019-04-21T06:54:09.463Z,54.9264
2019-04-21T06:56:24.141Z,53.3379
2019-04-21T06:58:27.856Z,48.5023
2019-04-21T07:00:30.558Z,50.8095
2019-04-21T07:02:54.903Z,50.8980
2019-04-21T07:04:56.105Z,48.0415
2019-04-21T07:07:03.171Z,53.5515
2019-04-21T07:11:14.872Z,56.1486
2019-04-21T07:13:27.524Z,55.8221
2019-04-21T07:15:36.937Z,54.9813
2019-04-21T07:17:43.227Z,59.2203
2019-04-21T07:19:55.965Z,55.7855
2019-04-21T07:22:03.104Z,53.6446
2019-04-21T07:24:14.767Z,51.8090
2019-04-21T07:26:21.792Z,52.3751
2019-04-21T07:28:31.956Z,51.3512
2019-04-21T07:30:37.083Z,50.3609
2019-04-21T07:32:47.461Z,53.4920
2019-04-21T07:34:57.376Z,53.9818
2019-04-21T07:37:17.309Z,53.5790
2019-04-21T07:39:10.340Z,52.4575
2019-04-21T07:41:16.183Z,54.5144
2019-04-21T07:43:28.618Z,53.3181
2019-04-21T07:45:35.075Z,53.5103
2019-04-21T07:47:50.689Z,51.1345
2019-04-21T07:50:00.966Z,53.5760
2019-04-21T07:52:05.993Z,52.4025
2019-04-21T07:54:18.341Z,52.6696
2019-04-21T07:56:10.750Z,47.9988
2019-04-21T07:58:26.619Z,49.5064
2019-04-21T08:00:45.421Z,52.4041
2019-04-21T08:02:49.571Z,47.4372
2019-04-21T08:05:02.378Z,50.7088
2019-04-21T08:07:06.341Z,46.9337
2019-04-21T08:09:12.516Z,48.8594
2019-04-21T08:11:22.524Z,44.7868
2019-04-21T08:13:41.528Z,47.5319
2019-04-21T08:15:39.502Z,47.4769
2019-04-21T08:17:49.210Z,49.5155
2019-04-21T08:19:55.614Z,47.4556
2019-04-21T08:24:17.230Z,43.5492
2019-04-21T08:26:27.366Z,45.2430
2019-04-21T08:28:35.485Z,47.4632
2019-04-21T08:30:37.823Z,45.2262
2019-04-21T08:33:04.318Z,46.5446
2019-04-21T08:35:08.805Z,47.8172
2019-04-21T08:37:08.629Z,44.4434
2019-04-21T08:39:13.209Z,42.2126
2019-04-21T08:41:23.075Z,41.1841
2019-04-21T08:43:42.740Z,42.2599
2019-04-21T08:45:45.003Z,37.7722
2019-04-21T08:47:55.339Z,43.0594
2019-04-21T08:50:00.342Z,37.8744
2019-04-21T08:52:16.235Z,35.7519
2019-04-21T08:54:21.853Z,34.2748
2019-04-21T08:56:28.759Z,34.8226
2019-04-21T09:00:48.813Z,37.4273
2019-04-21T09:03:00.291Z,37.4426
2019-04-21T09:04:59.179Z,35.9777
2019-04-21T09:07:22.652Z,37.3220
2019-04-21T09:09:24.484Z,33.8125
2019-04-21T09:11:22.646Z,35.0195
2019-04-21T09:13:38.416Z,38.2208
2019-04-21T09:15:41.603Z,34.5632
2019-04-21T09:17:44.565Z,41.4633
2019-04-21T09:20:07.854Z,39.1104
2019-04-21T09:22:05.759Z,39.1287
2019-04-21T09:24:22.036Z,42.9679
2019-04-21T09:26:37.019Z,43.5874
2019-04-21T09:28:32.215Z,40.8896
2019-04-21T09:30:30.733Z,44.0497
2019-04-21T09:32:36.706Z,45.9022
2019-04-21T09:34:44.187Z,43.6332
2019-04-21T09:36:54.486Z,43.3082
2019-04-21T09:39:09.413Z,42.9221
2019-04-21T09:41:15.733Z,41.6327
2019-04-21T09:43:25.833Z,42.5284
2019-04-21T09:45:26.457Z,43.5538
2019-04-21T09:47:40.508Z,42.5483
2019-04-21T09:49:40.093Z,42.9648
2019-04-21T09:51:45.953Z,40.1434
2019-04-21T09:53:57.215Z,41.9852
2019-04-21T09:56:04.626Z,42.4842
2019-04-21T09:58:16.735Z,43.0106
2019-04-21T10:00:22.427Z,44.2695
2019-04-21T10:02:41.361Z,40.1892
2019-04-21T10:04:37.862Z,42.1363
2019-04-21T10:06:41.402Z,42.4750
2019-04-21T10:08:48.477Z,35.8022
2019-04-21T10:10:54.609Z,39.2828
2019-04-21T10:12:58.098Z,42.2278
2019-04-21T10:15:02.113Z,41.6266
2019-04-21T10:17:06.364Z,37.9568
2019-04-21T10:19:11.026Z,40.1251
2019-04-21T10:21:15.465Z,34.2321
2019-04-21T10:23:18.962Z,37.9385
2019-04-21T10:25:22.784Z,37.7127
2019-04-21T10:27:27.309Z,37.9934
2019-04-21T10:29:32.974Z,38.9868
2019-04-21T10:31:38.717Z,38.3459
2019-04-21T10:33:42.201Z,39.0463
2019-04-21T10:35:46.787Z,36.1639
2019-04-21T10:38:03.403Z,38.6831
2019-04-21T10:40:00.131Z,38.4695
2019-04-21T10:42:03.632Z,42.8168
2019-04-21T10:44:07.240Z,38.5870
2019-04-21T10:46:10.791Z,40.7706
2019-04-21T10:48:14.672Z,39.4034
2019-04-21T10:50:18.445Z,38.9456
2019-04-21T10:52:22.889Z,37.2396
2019-04-21T10:54:37.870Z,43.0930
2019-04-21T10:56:41.396Z,37.5006
2019-04-21T10:58:44.566Z,38.8220
2019-04-21T11:00:48.393Z,38.6831
2019-04-21T11:02:52.840Z,42.6978
2019-04-21T11:04:56.708Z,39.3210
2019-04-21T11:07:07.000Z,39.0631
2019-04-21T11:09:10.646Z,36.0815
2019-04-21T11:11:14.267Z,38.2849
2019-04-21T11:13:16.684Z,36.4706
2019-04-21T11:15:21.206Z,38.9944
2019-04-21T11:17:25.867Z,36.1700
2019-04-21T11:19:30.589Z,41.2436
2019-04-21T11:21:34.633Z,33.5515
2019-04-21T11:23:38.854Z,38.3688
2019-04-21T11:25:42.273Z,36.2509
2019-04-21T11:27:47.066Z,37.6486
2019-04-21T11:29:51.695Z,39.6963
2019-04-21T11:31:56.926Z,36.9741
2019-04-21T11:34:00.882Z,37.8470
2019-04-21T11:36:04.518Z,35.4925
2019-04-21T11:38:16.955Z,35.8251
2019-04-21T11:40:19.764Z,33.9406
2019-04-21T11:42:25.765Z,34.1909
2019-04-21T11:44:30.954Z,35.2758
2019-04-21T11:46:34.474Z,35.9457
2019-04-21T11:48:39.865Z,38.5412
2019-04-21T11:50:44.092Z,36.8978
2019-04-21T11:52:47.530Z,34.1604
2019-04-21T11:54:51.009Z,31.5145
2019-04-21T11:56:55.314Z,33.3089
2019-04-21T11:58:59.644Z,35.4421
2019-04-21T12:01:03.813Z,33.1746
2019-04-21T12:03:12.401Z,36.4385
2019-04-21T12:05:19.357Z,32.7581
2019-04-21T12:07:23.474Z,36.0143
2019-04-21T12:09:27.770Z,25.5070
2019-04-21T12:11:31.969Z,30.0893
2019-04-21T12:13:36.210Z,31.6655
2019-04-21T12:15:40.903Z,29.9763
2019-04-21T12:17:45.830Z,32.4239
2019-04-21T12:19:50.427Z,31.7617
2019-04-21T12:22:05.290Z,27.5212
2019-04-21T12:24:03.601Z,31.7479
2019-04-21T12:26:07.353Z,32.1355
2019-04-21T12:28:12.156Z,32.5948
2019-04-21T12:30:15.819Z,36.4858
2019-04-21T12:32:20.217Z,26.4698
2019-04-21T12:34:24.255Z,27.3518
2019-04-21T12:36:27.649Z,33.6324
2019-04-21T12:38:40.959Z,34.1054
2019-04-21T12:40:52.765Z,26.6117
2019-04-21T12:42:56.817Z,33.2403
2019-04-21T12:45:01.449Z,31.7327
2019-04-21T12:47:05.825Z,33.0510
2019-04-21T12:49:09.761Z,32.0912
2019-04-21T12:51:13.616Z,33.4218
2019-04-21T12:53:17.850Z,28.9952
2019-04-21T12:55:23.952Z,29.3111
2019-04-21T12:57:33.248Z,32.1767
2019-04-21T12:59:37.784Z,31.2108
2019-04-21T13:01:43.128Z,29.5857
2019-04-21T13:03:47.947Z,27.7607
2019-04-21T13:05:51.761Z,26.3813
2019-04-21T13:07:56.211Z,26.5202
2019-04-21T13:10:02.244Z,29.2699
2019-04-21T13:12:06.867Z,27.4678
2019-04-21T13:14:11.488Z,23.5843
2019-04-21T13:16:15.650Z,25.9327
2019-04-21T13:18:20.566Z,26.5873
2019-04-21T13:20:23.332Z,28.0476
2019-04-21T13:22:27.973Z,27.4846
2019-04-21T13:24:31.823Z,25.6718
2019-04-21T13:26:42.951Z,30.4006
2019-04-21T13:28:44.717Z,26.0151
2019-04-21T13:30:48.628Z,30.4280
2019-04-21T13:32:53.456Z,32.9824
2019-04-21T13:34:57.117Z,26.0517
2019-04-21T13:37:01.571Z,31.7739
2019-04-21T13:39:38.179Z,29.9443
2019-04-21T13:41:31.401Z,27.1794
2019-04-21T13:43:23.590Z,25.2232
2019-04-21T13:45:27.813Z,25.9052
2019-04-21T13:47:32.541Z,27.0420
2019-04-21T13:49:37.127Z,26.2623
2019-04-21T13:51:41.624Z,30.7408
2019-04-21T13:53:45.972Z,31.6182
2019-04-21T13:55:50.773Z,23.8148
2019-04-21T13:57:54.526Z,30.5074
2019-04-21T13:59:57.559Z,31.5496
2019-04-21T14:02:02.569Z,28.3421
2019-04-21T14:04:07.232Z,31.5221
2019-04-21T14:06:12.025Z,24.1123
2019-04-21T14:08:15.624Z,31.3313
2019-04-21T14:10:19.884Z,24.1489
2019-04-21T14:12:23.463Z,28.2185
2019-04-21T14:14:28.298Z,35.2850
2019-04-21T14:16:32.430Z,30.6661
2019-04-21T14:18:36.602Z,27.5303
2019-04-21T14:20:40.164Z,31.8669
2019-04-21T14:22:44.230Z,27.0222
2019-04-21T14:24:48.348Z,35.9442
2019-04-21T14:26:54.178Z,26.1479
2019-04-21T14:28:58.880Z,24.4129
2019-04-21T14:31:02.376Z,26.6743
2019-04-21T14:33:05.796Z,29.0227
2019-04-21T14:35:09.192Z,31.0277
2019-04-21T14:37:13.028Z,32.9290
2019-04-21T14:39:16.750Z,31.6060
2019-04-21T14:41:22.203Z,28.8853
2019-04-21T14:43:25.941Z,28.7495
2019-04-21T14:45:30.413Z,29.7093
2019-04-21T14:47:35.067Z,27.2526
2019-04-21T14:49:39.428Z,25.6306
2019-04-21T14:51:43.192Z,32.6955
2019-04-21T14:53:47.720Z,27.8096
2019-04-21T14:55:51.275Z,31.0430
2019-04-21T14:57:54.936Z,27.0359
2019-04-21T14:59:58.513Z,22.1027
2019-04-21T15:02:02.017Z,29.3996
2019-04-21T15:04:05.947Z,24.6647
2019-04-21T15:06:09.453Z,25.0095
2019-04-21T15:08:13.148Z,23.1418
2019-04-21T15:10:21.752Z,26.7659
2019-04-21T15:12:25.785Z,26.9490
2019-04-21T15:14:29.974Z,24.4450
2019-04-21T15:16:33.435Z,23.9597
2019-04-21T15:18:36.917Z,26.4637
2019-04-21T15:20:40.516Z,30.0038
2019-04-21T15:22:44.280Z,27.3610
2019-04-21T15:24:48.158Z,22.8626
2019-04-21T15:26:53.021Z,27.3579
2019-04-21T15:28:57.129Z,20.8240
2019-04-21T15:31:02.747Z,26.1997
2019-04-21T15:33:06.491Z,21.9959
2019-04-21T15:35:11.056Z,25.9007
2019-04-21T15:37:15.705Z,25.7511
2019-04-21T15:39:19.544Z,26.8315
2019-04-21T15:41:24.660Z,24.2756
2019-04-21T15:43:28.610Z,21.5976
2019-04-21T15:45:32.607Z,26.0884
2019-04-21T15:47:36.117Z,25.4582
2019-04-21T15:49:49.906Z,20.2335
2019-04-21T15:51:49.589Z,24.7608
2019-04-21T15:53:53.043Z,24.1169
2019-04-21T15:55:57.015Z,18.4207
2019-04-21T15:58:00.649Z,23.7003
2019-04-21T16:00:04.686Z,25.1316
2019-04-21T16:02:10.501Z,25.2567
2019-04-21T16:04:14.826Z,26.9780
2019-04-21T16:06:19.447Z,24.2802
2019-04-21T16:08:22.882Z,25.1194
2019-04-21T16:10:37.385Z,25.7404
2019-04-21T16:12:36.067Z,26.3905
2019-04-21T16:14:40.698Z,28.3742
2019-04-21T16:16:45.411Z,30.6264
2019-04-21T16:18:50.011Z,28.9052
2019-04-21T16:20:53.740Z,27.1138
2019-04-21T16:22:57.175Z,34.1360
2019-04-21T16:25:03.202Z,27.0588
2019-04-21T16:27:09.155Z,28.8090
2019-04-21T16:29:15.484Z,30.2373
2019-04-21T16:31:20.318Z,25.4200
2019-04-21T16:33:25.053Z,26.3920
2019-04-21T16:35:29.569Z,20.2518
2019-04-21T16:37:33.075Z,20.8881
2019-04-21T16:39:37.650Z,20.0519
2019-04-21T16:41:42.412Z,27.3472
2019-04-21T16:43:47.136Z,23.5523
2019-04-21T16:45:51.172Z,24.5594
2019-04-21T16:47:57.370Z,22.0737
2019-04-21T16:50:01.623Z,20.5676
2019-04-21T16:52:05.750Z,22.0569
2019-04-21T16:54:10.220Z,24.4358
2019-04-21T16:56:15.180Z,23.9551
2019-04-21T16:58:23.413Z,26.4286
2019-04-21T17:00:38.332Z,20.6195
2019-04-21T17:02:38.602Z,21.6220
2019-04-21T17:04:42.654Z,23.5248
2019-04-21T17:06:47.151Z,23.3921
2019-04-21T17:08:52.652Z,23.5843
2019-04-21T17:11:06.240Z,27.2282
2019-04-21T17:13:06.097Z,26.4973
2019-04-21T17:15:29.387Z,24.8218
2019-04-21T17:17:44.629Z,37.7096
2019-04-21T17:19:33.416Z,26.5888
2019-04-21T17:21:37.592Z,36.2188
2019-04-21T17:23:41.056Z,35.2804
2019-04-21T17:25:45.325Z,35.1888
2019-04-21T17:27:49.050Z,45.3254
2019-04-21T17:29:53.064Z,38.9822
2019-04-21T17:31:57.385Z,35.5413
2019-04-21T17:34:09.607Z,35.8587
2019-04-21T17:36:11.220Z,40.2625
2019-04-21T17:38:16.322Z,42.6429
2019-04-21T17:40:21.766Z,35.0378
2019-04-21T17:42:34.504Z,45.3574
2019-04-21T17:44:35.067Z,37.8180
2019-04-21T17:46:46.092Z,54.7890
2019-04-21T17:48:47.225Z,56.6064
2019-04-21T17:50:51.541Z,57.5479
2019-04-21T17:53:00.574Z,62.3560
2019-04-21T17:55:10.283Z,58.8571
2019-04-21T17:57:32.302Z,63.6286
2019-04-21T17:59:51.245Z,61.2192
2019-04-21T18:01:47.467Z,68.3070
2019-04-21T18:04:07.785Z,64.4389
2019-04-21T18:05:59.538Z,71.0384
2019-04-21T18:08:21.409Z,67.5746
2019-04-21T18:10:24.155Z,72.4483
2019-04-21T18:12:32.198Z,71.0124
2019-04-21T18:14:22.317Z,71.7357
2019-04-21T18:16:35.642Z,72.2789
2019-04-21T18:18:34.984Z,73.2448
2019-04-21T18:20:39.839Z,72.2255
2019-04-21T18:22:47.924Z,73.5897
2019-04-21T18:24:59.308Z,74.7097
2019-04-21T18:27:04.316Z,74.7234
2019-04-21T18:29:11.733Z,74.3481
2019-04-21T18:31:16.526Z,76.0342
2019-04-21T18:33:25.328Z,73.7133
2019-04-21T18:35:35.435Z,72.4361
2019-04-21T18:37:43.939Z,73.6675
2019-04-21T18:39:57.549Z,73.7713
2019-04-21T18:42:10.920Z,70.8339
2019-04-21T18:44:29.110Z,72.1233
2019-04-21T18:46:33.150Z,75.7000
2019-04-21T18:48:31.523Z,74.5998
2019-04-21T18:50:39.117Z,75.6649
2019-04-21T18:52:55.579Z,61.3397
2019-04-21T18:55:01.540Z,72.8328
2019-04-21T18:57:04.509Z,76.1868
2019-04-21T18:59:04.601Z,74.7280
2019-04-21T19:01:14.830Z,76.0388
2019-04-21T19:03:25.273Z,76.6247
2019-04-21T19:05:28.340Z,77.5921
2019-04-21T19:07:52.012Z,74.5907
2019-04-21T19:12:12.697Z,74.0917
2019-04-21T19:16:33.673Z,64.0986
2019-04-21T19:19:05.799Z,61.5457
2019-04-21T19:20:44.389Z,68.4581
2019-04-21T19:22:52.455Z,70.7958
2019-04-21T19:25:08.543Z,66.3096
2019-04-21T19:29:23.925Z,58.3185
2019-04-21T19:31:31.600Z,63.4043
2019-04-21T19:33:33.511Z,71.9097
2019-04-21T19:35:27.700Z,71.4656
2019-04-21T19:37:40.146Z,72.1386
2019-04-21T19:39:56.163Z,71.4015
2019-04-21T19:42:00.567Z,76.4477
2019-04-21T19:44:14.705Z,76.3058
2019-04-21T19:46:26.424Z,79.6918
2019-04-21T19:50:46.730Z,79.1287
2019-04-21T19:52:46.650Z,76.2646
2019-04-21T19:54:48.329Z,71.5160
2019-04-21T19:56:55.396Z,76.8399
2019-04-21T19:58:59.464Z,74.0597
2019-04-21T20:01:03.522Z,76.3928
2019-04-21T20:03:08.320Z,75.2010
2019-04-21T20:05:20.444Z,75.0378
2019-04-21T20:07:34.177Z,75.8984
2019-04-21T20:09:45.239Z,61.0513
2019-04-21T20:11:53.523Z,69.1112
2019-04-21T20:14:32.588Z,65.3040
2019-04-21T20:16:15.089Z,64.5258
2019-04-21T20:18:15.281Z,59.9847
2019-04-21T20:20:11.199Z,64.3915
2019-04-21T20:22:14.820Z,65.1286
2019-04-21T20:24:23.284Z,58.0942
2019-04-21T20:26:30.416Z,67.4739
2019-04-21T20:28:46.811Z,63.1754
2019-04-21T20:31:06.779Z,65.0645
2019-04-21T20:33:38.133Z,72.2026
2019-04-21T20:35:28.463Z,60.5554
2019-04-21T20:37:32.062Z,65.8030
2019-04-21T20:39:25.395Z,67.9530
2019-04-21T20:41:41.993Z,69.7032
2019-04-21T20:44:07.223Z,73.0114
2019-04-21T20:46:02.352Z,73.3822
2019-04-21T20:47:59.918Z,74.9249
2019-04-21T20:50:18.414Z,74.8333
2019-04-21T20:52:35.737Z,76.7086
2019-04-21T20:54:37.079Z,75.2743
2019-04-21T20:56:49.642Z,77.1786
2019-04-21T20:58:55.457Z,77.0794
2019-04-21T21:01:20.764Z,78.3108
2019-04-21T21:03:18.123Z,76.9909
2019-04-21T21:05:24.687Z,78.1186
2019-04-21T21:07:52.879Z,76.7956
2019-04-21T21:12:04.302Z,77.9171
2019-04-21T21:13:59.169Z,79.4186
2019-04-21T21:16:13.736Z,76.5011
2019-04-21T21:18:26.202Z,76.3928
2019-04-21T21:20:27.554Z,77.1160
2019-04-21T21:22:29.385Z,79.2248
2019-04-21T21:24:48.966Z,79.3668
2019-04-21T21:26:51.689Z,76.9604
2019-04-21T21:28:52.009Z,78.2467
2019-04-21T21:31:07.321Z,76.8460
2019-04-21T21:33:17.245Z,76.8490
2019-04-21T21:35:18.968Z,76.9055
2019-04-21T21:37:44.339Z,78.2559
2019-04-21T21:39:51.955Z,78.8098
2019-04-21T21:41:45.202Z,78.9319
2019-04-21T21:44:04.126Z,80.6729
2019-04-21T21:46:10.788Z,82.4399
2019-04-21T21:48:26.356Z,80.9506
2019-04-21T21:50:25.099Z,79.3729
2019-04-21T21:52:43.009Z,77.0794
2019-04-21T21:54:37.854Z,76.3912
2019-04-21T21:56:42.576Z,77.2656
2019-04-21T21:58:48.422Z,78.4924
2019-04-21T22:00:58.467Z,78.5351
2019-04-21T22:03:10.480Z,78.1506
2019-04-21T22:05:16.538Z,77.9339
2019-04-21T22:07:23.927Z,78.9151
2019-04-21T22:09:28.353Z,78.6404
2019-04-21T22:11:31.845Z,80.3052
2019-04-21T22:13:43.645Z,77.6410
2019-04-21T22:15:50.551Z,78.0072
2019-04-21T22:18:14.635Z,79.2218
2019-04-21T22:20:20.169Z,80.6897
2019-04-21T22:22:23.290Z,78.8129
2019-04-21T22:24:34.922Z,77.9171
2019-04-21T22:26:29.199Z,79.2889
2019-04-21T22:28:33.769Z,81.8173
2019-04-21T22:30:43.838Z,79.3301
2019-04-21T22:32:53.966Z,79.6918
2019-04-21T22:34:59.896Z,83.4730
2019-04-21T22:37:21.144Z,82.0768
2019-04-21T22:39:30.701Z,78.2834
2019-04-21T22:41:30.279Z,80.5356
2019-04-21T22:43:36.435Z,79.0143
2019-04-21T22:45:38.373Z,80.5951
2019-04-21T22:47:42.994Z,81.4740
2019-04-21T22:49:48.660Z,81.9898
2019-04-21T22:51:52.086Z,82.4567
2019-04-21T22:53:59.480Z,82.8779
2019-04-21T22:56:12.529Z,81.1536
2019-04-21T22:58:15.849Z,81.7029
2019-04-21T23:00:22.288Z,84.2374
2019-04-21T23:02:30.508Z,84.2664
2019-04-21T23:04:41.729Z,84.8341
2019-04-21T23:06:44.473Z,84.1505
2019-04-21T23:08:49.206Z,80.6943
2019-04-21T23:11:00.921Z,81.0712
2019-04-21T23:13:07.695Z,82.0188
2019-04-21T23:15:13.940Z,85.1163
2019-04-21T23:17:38.962Z,85.7069
2019-04-21T23:19:42.195Z,82.9511
2019-04-21T23:21:57.720Z,83.3173
2019-04-21T23:24:04.376Z,83.3036
2019-04-21T23:26:14.557Z,83.5935
2019-04-21T23:28:17.165Z,84.4297
2019-04-21T23:32:34.131Z,85.2094
2019-04-21T23:34:36.224Z,85.2872
2019-04-21T23:36:48.288Z,85.9586
2019-04-21T23:38:49.829Z,86.9581
2019-04-21T23:40:59.932Z,87.3701
2019-04-21T23:43:10.685Z,86.3111
2019-04-21T23:45:14.124Z,86.1799
2019-04-21T23:47:36.834Z,85.8824
2019-04-21T23:49:40.466Z,86.6773
2019-04-21T23:51:47.038Z,85.5009
2019-04-21T23:53:47.267Z,85.6855
2019-04-21T23:55:50.704Z,85.3590
2019-04-21T23:58:05.016Z,84.8188
